sensor_id;sensor_type;location;lat;lon;timestamp;pressure;altitude;pressure_sealevel;temperature;humidity
31337;BME280;22846;42.654;23.314;2022-10-18T00:01:00;96015.34;;;25.64;48.43
31337;BME280;22846;42.654;23.314;2022-10-18T00:03:25;96022.81;;;25.64;48.20
31337;BME280;22846;42.654;23.314;2022-10-18T00:05:50;95991.34;;;25.46;48.63
31337;BME280;22846;42.654;23.314;2022-10-18T00:08:16;96019.28;;;25.63;48.08
31337;BME280;22846;42.654;23.314;2022-10-18T00:10:42;96011.06;;;25.63;48.16
31337;BME280;22846;42.654;23.314;2022-10-18T00:13:07;96013.03;;;25.63;48.57
31337;BME280;22846;42.654;23.314;2022-10-18T00:15:32;96011.47;;;25.62;48.13
31337;BME280;22846;42.654;23.314;2022-10-18T00:17:58;96006.00;;;25.62;48.01
31337;BME280;22846;42.654;23.314;2022-10-18T00:20:23;96002.50;;;25.62;48.04
31337;BME280;22846;42.654;23.314;2022-10-18T00:22:48;95995.06;;;25.62;48.39
31337;BME280;22846;42.654;23.314;2022-10-18T00:25:14;95997.03;;;25.62;48.35
31337;BME280;22846;42.654;23.314;2022-10-18T00:27:39;95990.00;;;25.61;48.36
31337;BME280;22846;42.654;23.314;2022-10-18T00:30:05;95992.75;;;25.61;48.62
31337;BME280;22846;42.654;23.314;2022-10-18T00:32:30;95981.00;;;25.60;47.85
31337;BME280;22846;42.654;23.314;2022-10-18T00:34:55;95981.00;;;25.60;48.34
31337;BME280;22846;42.654;23.314;2022-10-18T00:37:20;95981.00;;;25.60;48.13
31337;BME280;22846;42.654;23.314;2022-10-18T00:39:46;95973.97;;;25.59;47.68
31337;BME280;22846;42.654;23.314;2022-10-18T00:42:17;95972.41;;;25.58;48.31
31337;BME280;22846;42.654;23.314;2022-10-18T00:47:09;95973.97;;;25.59;48.09
31337;BME280;22846;42.654;23.314;2022-10-18T00:49:39;95973.63;;;25.57;47.55
31337;BME280;22846;42.654;23.314;2022-10-18T00:52:07;95966.16;;;25.58;47.73
31337;BME280;22846;42.654;23.314;2022-10-18T00:54:34;95959.16;;;25.57;48.06
31337;BME280;22846;42.654;23.314;2022-10-18T00:57:01;95960.69;;;25.58;47.67
31337;BME280;22846;42.654;23.314;2022-10-18T00:59:26;95963.84;;;25.56;48.62
31337;BME280;22846;42.654;23.314;2022-10-18T01:01:52;95958.38;;;25.56;48.40
31337;BME280;22846;42.654;23.314;2022-10-18T01:04:18;95969.34;;;25.56;49.11
31337;BME280;22846;42.654;23.314;2022-10-18T01:06:53;95962.31;;;25.55;48.04
31337;BME280;22846;42.654;23.314;2022-10-18T01:09:21;95954.84;;;25.56;48.20
31337;BME280;22846;42.654;23.314;2022-10-18T01:11:54;95956.03;;;25.55;48.79
31337;BME280;22846;42.654;23.314;2022-10-18T01:17:03;95949.81;;;25.54;48.48
31337;BME280;22846;42.654;23.314;2022-10-18T01:21:58;95955.69;;;25.53;48.75
31337;BME280;22846;42.654;23.314;2022-10-18T01:32:00;95947.13;;;25.51;47.96
31337;BME280;22846;42.654;23.314;2022-10-18T01:34:28;95947.13;;;25.51;49.69
31337;BME280;22846;42.654;23.314;2022-10-18T01:36:54;95953.78;;;25.50;48.91
31337;BME280;22846;42.654;23.314;2022-10-18T01:39:22;95946.31;;;25.50;48.46
31337;BME280;22846;42.654;23.314;2022-10-18T01:41:49;95944.78;;;25.49;48.07
31337;BME280;22846;42.654;23.314;2022-10-18T01:44:17;95940.09;;;25.50;48.10
31337;BME280;22846;42.654;23.314;2022-10-18T01:46:45;95939.28;;;25.49;47.90
31337;BME280;22846;42.654;23.314;2022-10-18T01:49:10;95941.28;;;25.49;48.55
31337;BME280;22846;42.654;23.314;2022-10-18T01:51:36;95934.25;;;25.48;48.43
31337;BME280;22846;42.654;23.314;2022-10-18T01:54:01;95936.97;;;25.48;48.94
31337;BME280;22846;42.654;23.314;2022-10-18T01:59:13;95936.22;;;25.47;47.06
31337;BME280;22846;42.654;23.314;2022-10-18T02:04:31;95931.13;;;25.46;48.14
31337;BME280;22846;42.654;23.314;2022-10-18T02:06:57;95931.13;;;25.46;48.33
31337;BME280;22846;42.654;23.314;2022-10-18T02:09:34;95925.66;;;25.46;47.93
31337;BME280;22846;42.654;23.314;2022-10-18T02:12:03;95926.88;;;25.45;47.73
31337;BME280;22846;42.654;23.314;2022-10-18T02:14:31;95925.66;;;25.46;48.12
31337;BME280;22846;42.654;23.314;2022-10-18T02:16:57;95921.41;;;25.45;48.42
31337;BME280;22846;42.654;23.314;2022-10-18T02:19:32;95917.13;;;25.44;47.10
31337;BME280;22846;42.654;23.314;2022-10-18T02:21:59;95924.13;;;25.45;47.91
31337;BME280;22846;42.654;23.314;2022-10-18T02:24:34;95917.13;;;25.44;47.38
31337;BME280;22846;42.654;23.314;2022-10-18T02:27:01;95928.81;;;25.44;47.84
31337;BME280;22846;42.654;23.314;2022-10-18T02:29:27;95916.31;;;25.43;47.55
31337;BME280;22846;42.654;23.314;2022-10-18T02:32:03;95915.56;;;25.43;47.39
31337;BME280;22846;42.654;23.314;2022-10-18T02:34:43;95910.84;;;25.43;47.25
31337;BME280;22846;42.654;23.314;2022-10-18T02:37:10;95919.06;;;25.43;47.56
31337;BME280;22846;42.654;23.314;2022-10-18T02:39:44;95915.94;;;25.41;48.96
31337;BME280;22846;42.654;23.314;2022-10-18T02:42:11;95924.94;;;25.42;47.07
31337;BME280;22846;42.654;23.314;2022-10-18T02:44:37;95923.41;;;25.41;47.80
31337;BME280;22846;42.654;23.314;2022-10-18T02:47:03;95927.69;;;25.42;48.67
31337;BME280;22846;42.654;23.314;2022-10-18T02:49:29;95928.09;;;25.40;47.31
31337;BME280;22846;42.654;23.314;2022-10-18T02:51:54;95928.88;;;25.41;47.42
31337;BME280;22846;42.654;23.314;2022-10-18T02:54:20;95929.63;;;25.41;48.00
31337;BME280;22846;42.654;23.314;2022-10-18T02:56:45;95928.88;;;25.41;48.37
31337;BME280;22846;42.654;23.314;2022-10-18T02:59:11;95932.78;;;25.40;47.55
31337;BME280;22846;42.654;23.314;2022-10-18T03:01:36;95921.09;;;25.39;47.23
31337;BME280;22846;42.654;23.314;2022-10-18T03:04:02;95922.28;;;25.38;47.45
31337;BME280;22846;42.654;23.314;2022-10-18T03:06:27;95925.00;;;25.38;47.19
31337;BME280;22846;42.654;23.314;2022-10-18T03:08:53;95922.28;;;25.38;47.47
31337;BME280;22846;42.654;23.314;2022-10-18T03:11:18;95925.41;;;25.37;47.32
31337;BME280;22846;42.654;23.314;2022-10-18T03:13:44;95917.97;;;25.37;47.94
31337;BME280;22846;42.654;23.314;2022-10-18T03:16:09;95922.66;;;25.37;47.17
31337;BME280;22846;42.654;23.314;2022-10-18T03:18:34;95913.69;;;25.36;47.28
31337;BME280;22846;42.654;23.314;2022-10-18T03:21:03;95919.91;;;25.37;47.33
31337;BME280;22846;42.654;23.314;2022-10-18T03:23:29;95919.59;;;25.35;47.22
31337;BME280;22846;42.654;23.314;2022-10-18T03:25:54;95914.88;;;25.35;47.19
31337;BME280;22846;42.654;23.314;2022-10-18T03:28:20;95911.38;;;25.35;47.36
31337;BME280;22846;42.654;23.314;2022-10-18T03:30:45;95915.66;;;25.36;47.25
31337;BME280;22846;42.654;23.314;2022-10-18T03:33:10;95916.06;;;25.34;47.56
31337;BME280;22846;42.654;23.314;2022-10-18T03:35:35;95918.03;;;25.34;47.26
31337;BME280;22846;42.654;23.314;2022-10-18T03:38:01;95916.47;;;25.33;47.06
31337;BME280;22846;42.654;23.314;2022-10-18T03:40:26;95914.50;;;25.33;47.71
31337;BME280;22846;42.654;23.314;2022-10-18T03:42:51;95918.41;;;25.32;46.73
31337;BME280;22846;42.654;23.314;2022-10-18T03:45:16;95929.38;;;25.32;47.46
31337;BME280;22846;42.654;23.314;2022-10-18T03:47:42;95928.59;;;25.32;46.79
31337;BME280;22846;42.654;23.314;2022-10-18T03:50:07;95936.06;;;25.31;46.45
31337;BME280;22846;42.654;23.314;2022-10-18T03:52:32;95929.78;;;25.31;46.75
31337;BME280;22846;42.654;23.314;2022-10-18T03:54:58;95927.06;;;25.31;49.44
31337;BME280;22846;42.654;23.314;2022-10-18T03:57:23;95929.03;;;25.30;49.32
31337;BME280;22846;42.654;23.314;2022-10-18T03:59:48;95936.06;;;25.31;50.11
31337;BME280;22846;42.654;23.314;2022-10-18T04:02:13;95927.84;;;25.31;50.30
31337;BME280;22846;42.654;23.314;2022-10-18T04:04:39;95939.56;;;25.32;50.61
31337;BME280;22846;42.654;23.314;2022-10-18T04:07:04;95936.06;;;25.31;49.70
31337;BME280;22846;42.654;23.314;2022-10-18T04:09:29;95929.38;;;25.32;49.28
31337;BME280;22846;42.654;23.314;2022-10-18T04:11:55;95930.16;;;25.33;49.37
31337;BME280;22846;42.654;23.314;2022-10-18T04:14:20;95922.72;;;25.33;49.41
31337;BME280;22846;42.654;23.314;2022-10-18T04:16:46;95931.72;;;25.34;49.90
31337;BME280;22846;42.654;23.314;2022-10-18T04:19:11;95922.72;;;25.33;50.17
31337;BME280;22846;42.654;23.314;2022-10-18T04:21:36;95914.16;;;25.31;48.96
31337;BME280;22846;42.654;23.314;2022-10-18T04:24:02;95926.63;;;25.32;49.09
31337;BME280;22846;42.654;23.314;2022-10-18T04:26:27;95924.88;;;24.85;30.32
31337;BME280;22846;42.654;23.314;2022-10-18T04:28:52;95927.91;;;24.17;31.09
31337;BME280;22846;42.654;23.314;2022-10-18T04:31:17;95930.22;;;23.72;39.79
31337;BME280;22846;42.654;23.314;2022-10-18T04:33:43;95933.84;;;23.58;43.01
31337;BME280;22846;42.654;23.314;2022-10-18T04:36:08;95936.91;;;23.60;44.59
31337;BME280;22846;42.654;23.314;2022-10-18T04:38:33;95930.63;;;23.70;45.27
31337;BME280;22846;42.654;23.314;2022-10-18T04:40:59;95929.75;;;23.84;46.26
31337;BME280;22846;42.654;23.314;2022-10-18T04:43:24;95923.81;;;23.95;47.02
31337;BME280;22846;42.654;23.314;2022-10-18T04:45:49;95917.50;;;24.05;47.08
31337;BME280;22846;42.654;23.314;2022-10-18T04:48:15;95927.53;;;24.15;47.41
31337;BME280;22846;42.654;23.314;2022-10-18T04:50:41;95923.94;;;24.25;47.33
31337;BME280;22846;42.654;23.314;2022-10-18T04:53:06;95921.16;;;24.32;47.21
31337;BME280;22846;42.654;23.314;2022-10-18T04:55:31;95921.47;;;24.38;47.51
31337;BME280;22846;42.654;23.314;2022-10-18T04:57:57;95910.50;;;24.45;47.62
31337;BME280;22846;42.654;23.314;2022-10-18T05:00:22;95906.56;;;24.49;47.72
31337;BME280;22846;42.654;23.314;2022-10-18T05:02:47;95906.47;;;24.56;47.59
31337;BME280;22846;42.654;23.314;2022-10-18T05:05:12;95906.84;;;24.58;47.53
31337;BME280;22846;42.654;23.314;2022-10-18T05:07:38;95900.94;;;24.63;46.90
31337;BME280;22846;42.654;23.314;2022-10-18T05:10:03;95905.59;;;24.66;47.29
31337;BME280;22846;42.654;23.314;2022-10-18T05:12:28;95905.94;;;24.68;47.16
31337;BME280;22846;42.654;23.314;2022-10-18T05:14:54;95901.63;;;24.71;46.98
31337;BME280;22846;42.654;23.314;2022-10-18T05:17:19;95905.50;;;24.73;47.03
31337;BME280;22846;42.654;23.314;2022-10-18T05:19:44;95908.19;;;24.77;47.03
31337;BME280;22846;42.654;23.314;2022-10-18T05:22:10;95907.38;;;24.79;47.01
31337;BME280;22846;42.654;23.314;2022-10-18T05:24:35;95901.88;;;24.83;46.76
31337;BME280;22846;42.654;23.314;2022-10-18T05:27:00;95911.22;;;24.85;46.88
31337;BME280;22846;42.654;23.314;2022-10-18T05:29:25;95917.41;;;24.89;46.61
31337;BME280;22846;42.654;23.314;2022-10-18T05:31:51;95915.81;;;24.92;47.06
31337;BME280;22846;42.654;23.314;2022-10-18T05:34:16;95912.25;;;24.95;46.80
31337;BME280;22846;42.654;23.314;2022-10-18T05:36:42;95911.44;;;24.98;46.50
31337;BME280;22846;42.654;23.314;2022-10-18T05:39:07;95915.31;;;25.00;47.08
31337;BME280;22846;42.654;23.314;2022-10-18T05:41:33;95919.97;;;25.03;46.82
31337;BME280;22846;42.654;23.314;2022-10-18T05:44:01;95918.75;;;25.08;46.48
31337;BME280;22846;42.654;23.314;2022-10-18T05:46:27;95913.66;;;25.10;46.49
31337;BME280;22846;42.654;23.314;2022-10-18T05:48:52;95908.16;;;25.13;47.24
31337;BME280;22846;42.654;23.314;2022-10-18T05:51:17;95925.69;;;25.16;46.62
31337;BME280;22846;42.654;23.314;2022-10-18T05:53:43;95926.06;;;25.18;46.15
31337;BME280;22846;42.654;23.314;2022-10-18T05:56:08;95926.41;;;25.20;46.51
31337;BME280;22846;42.654;23.314;2022-10-18T05:58:35;95920.88;;;25.23;46.61
31337;BME280;22846;42.654;23.314;2022-10-18T06:01:01;95923.22;;;25.25;46.46
31337;BME280;22846;42.654;23.314;2022-10-18T06:03:27;95918.91;;;25.27;45.98
31337;BME280;22846;42.654;23.314;2022-10-18T06:05:57;95924.31;;;25.31;46.40
31337;BME280;22846;42.654;23.314;2022-10-18T06:08:23;95925.44;;;25.33;46.18
31337;BME280;22846;42.654;23.314;2022-10-18T06:10:48;95919.59;;;25.35;46.36
31337;BME280;22846;42.654;23.314;2022-10-18T06:13:13;95925.00;;;25.38;46.51
31337;BME280;22846;42.654;23.314;2022-10-18T06:15:38;95923.41;;;25.41;46.49
31337;BME280;22846;42.654;23.314;2022-10-18T06:18:04;95921.78;;;25.43;46.45
31337;BME280;22846;42.654;23.314;2022-10-18T06:20:29;95930.38;;;25.45;46.81
31337;BME280;22846;42.654;23.314;2022-10-18T06:22:54;95924.84;;;25.49;46.43
31337;BME280;22846;42.654;23.314;2022-10-18T06:25:19;95918.94;;;25.50;46.81
31337;BME280;22846;42.654;23.314;2022-10-18T06:27:45;95921.28;;;25.52;46.63
31337;BME280;22846;42.654;23.314;2022-10-18T06:30:10;95896.03;;;25.41;46.65
31337;BME280;22846;42.654;23.314;2022-10-18T06:32:35;95919.25;;;25.56;46.86
31337;BME280;22846;42.654;23.314;2022-10-18T06:35:01;95912.19;;;25.58;46.79
31337;BME280;22846;42.654;23.314;2022-10-18T06:37:28;95909.03;;;25.60;46.61
31337;BME280;22846;42.654;23.314;2022-10-18T06:39:53;95906.25;;;25.63;46.67
31337;BME280;22846;42.654;23.314;2022-10-18T06:42:18;95907.00;;;25.63;46.81
31337;BME280;22846;42.654;23.314;2022-10-18T06:44:43;95908.94;;;25.66;46.54
31337;BME280;22846;42.654;23.314;2022-10-18T06:47:09;95903.03;;;25.68;46.37
31337;BME280;22846;42.654;23.314;2022-10-18T06:49:35;95910.44;;;25.71;46.81
31337;BME280;22846;42.654;23.314;2022-10-18T06:52:00;95910.00;;;25.72;46.56
31337;BME280;22846;42.654;23.314;2022-10-18T06:54:25;95910.38;;;25.74;46.64
31337;BME280;22846;42.654;23.314;2022-10-18T06:56:54;95910.78;;;25.76;46.38
31337;BME280;22846;42.654;23.314;2022-10-18T06:59:19;95909.16;;;25.79;46.50
31337;BME280;22846;42.654;23.314;2022-10-18T07:01:44;95912.25;;;25.81;46.71
31337;BME280;22846;42.654;23.314;2022-10-18T07:04:10;95907.91;;;25.83;46.78
31337;BME280;22846;42.654;23.314;2022-10-18T07:06:36;95912.97;;;25.85;46.53
31337;BME280;22846;42.654;23.314;2022-10-18T07:09:01;95918.03;;;25.86;46.58
31337;BME280;22846;42.654;23.314;2022-10-18T07:11:27;95919.19;;;25.89;46.76
31337;BME280;22846;42.654;23.314;2022-10-18T07:13:53;95912.50;;;25.90;46.69
31337;BME280;22846;42.654;23.314;2022-10-18T07:16:21;95921.09;;;25.92;46.54
31337;BME280;22846;42.654;23.314;2022-10-18T07:18:47;95917.94;;;25.93;46.38
31337;BME280;22846;42.654;23.314;2022-10-18T07:21:16;95915.94;;;25.94;46.67
31337;BME280;22846;42.654;23.314;2022-10-18T07:23:42;95914.75;;;25.95;46.68
31337;BME280;22846;42.654;23.314;2022-10-18T07:26:18;95908.88;;;25.96;46.53
31337;BME280;22846;42.654;23.314;2022-10-18T07:28:45;95913.16;;;25.97;46.34
31337;BME280;22846;42.654;23.314;2022-10-18T07:31:10;95913.50;;;25.99;46.64
31337;BME280;22846;42.654;23.314;2022-10-18T07:33:36;95906.09;;;26.00;46.44
31337;BME280;22846;42.654;23.314;2022-10-18T07:36:05;95901.38;;;26.00;46.52
31337;BME280;22846;42.654;23.314;2022-10-18T07:38:31;95899.00;;;26.02;46.36
31337;BME280;22846;42.654;23.314;2022-10-18T07:40:56;95897.81;;;26.03;46.65
31337;BME280;22846;42.654;23.314;2022-10-18T07:43:25;95893.88;;;26.04;46.44
31337;BME280;22846;42.654;23.314;2022-10-18T07:45:51;95890.72;;;26.06;46.72
31337;BME280;22846;42.654;23.314;2022-10-18T07:48:17;95891.47;;;26.06;46.40
31337;BME280;22846;42.654;23.314;2022-10-18T07:50:42;95889.09;;;26.08;46.67
31337;BME280;22846;42.654;23.314;2022-10-18T07:53:07;95887.16;;;26.09;46.77
31337;BME280;22846;42.654;23.314;2022-10-18T07:55:32;95876.94;;;26.09;46.56
31337;BME280;22846;42.654;23.314;2022-10-18T07:57:58;95876.19;;;26.09;46.66
31337;BME280;22846;42.654;23.314;2022-10-18T08:00:24;95881.25;;;26.10;46.69
31337;BME280;22846;42.654;23.314;2022-10-18T08:02:54;95882.78;;;26.11;46.80
31337;BME280;22846;42.654;23.314;2022-10-18T08:05:19;95883.56;;;26.12;46.46
31337;BME280;22846;42.654;23.314;2022-10-18T08:07:45;95872.19;;;26.13;46.45
31337;BME280;22846;42.654;23.314;2022-10-18T08:10:10;95872.19;;;26.13;46.28
31337;BME280;22846;42.654;23.314;2022-10-18T08:12:35;95870.97;;;26.14;46.60
31337;BME280;22846;42.654;23.314;2022-10-18T08:15:00;95872.53;;;26.15;46.24
31337;BME280;22846;42.654;23.314;2022-10-18T08:17:26;95858.81;;;26.15;46.35
31337;BME280;22846;42.654;23.314;2022-10-18T08:19:51;95864.31;;;26.15;46.35
31337;BME280;22846;42.654;23.314;2022-10-18T08:22:16;95859.63;;;26.16;46.33
31337;BME280;22846;42.654;23.314;2022-10-18T08:24:42;95860.38;;;26.16;46.16
31337;BME280;22846;42.654;23.314;2022-10-18T08:27:07;95859.19;;;26.17;46.40
31337;BME280;22846;42.654;23.314;2022-10-18T08:29:32;95849.00;;;26.18;46.05
31337;BME280;22846;42.654;23.314;2022-10-18T08:31:58;95852.50;;;26.18;45.84
31337;BME280;22846;42.654;23.314;2022-10-18T08:34:23;95838.81;;;26.18;46.29
31337;BME280;22846;42.654;23.314;2022-10-18T08:36:48;95832.16;;;26.19;45.91
31337;BME280;22846;42.654;23.314;2022-10-18T08:39:13;95838.38;;;26.20;46.03
31337;BME280;22846;42.654;23.314;2022-10-18T08:46:45;95820.00;;;26.20;45.95
31337;BME280;22846;42.654;23.314;2022-10-18T08:49:18;95820.00;;;26.20;46.04
31337;BME280;22846;42.654;23.314;2022-10-18T08:51:46;95811.78;;;26.20;46.08
31337;BME280;22846;42.654;23.314;2022-10-18T08:54:15;95804.31;;;26.21;45.93
31337;BME280;22846;42.654;23.314;2022-10-18T08:56:44;95808.59;;;26.22;46.14
31337;BME280;22846;42.654;23.314;2022-10-18T08:59:11;95806.66;;;26.22;46.19
31337;BME280;22846;42.654;23.314;2022-10-18T09:09:29;95800.38;;;26.22;46.07
31337;BME280;22846;42.654;23.314;2022-10-18T09:14:48;95806.66;;;26.22;45.67
31337;BME280;22846;42.654;23.314;2022-10-18T09:20:00;95792.94;;;26.22;45.95
31337;BME280;22846;42.654;23.314;2022-10-18T09:22:48;95794.47;;;26.23;45.98
31337;BME280;22846;42.654;23.314;2022-10-18T09:25:25;95793.72;;;26.23;45.93
31337;BME280;22846;42.654;23.314;2022-10-18T09:27:58;95787.47;;;26.22;46.07
31337;BME280;22846;42.654;23.314;2022-10-18T09:30:39;95793.72;;;26.23;45.97
31337;BME280;22846;42.654;23.314;2022-10-18T09:38:17;95778.03;;;26.23;46.13
31337;BME280;22846;42.654;23.314;2022-10-18T09:40:51;95773.34;;;26.24;46.19
31337;BME280;22846;42.654;23.314;2022-10-18T09:43:34;95768.31;;;26.19;45.79
31337;BME280;22846;42.654;23.314;2022-10-18T09:46:01;95778.03;;;26.23;45.93
31337;BME280;22846;42.654;23.314;2022-10-18T09:48:30;95747.06;;;26.07;46.25
31337;BME280;22846;42.654;23.314;2022-10-18T09:51:14;95769.03;;;26.23;45.92
31337;BME280;22846;42.654;23.314;2022-10-18T09:56:35;95774.09;;;26.24;45.97
31337;BME280;22846;42.654;23.314;2022-10-18T09:59:01;95763.13;;;26.24;46.06
31337;BME280;22846;42.654;23.314;2022-10-18T10:01:30;95758.44;;;26.25;46.17
31337;BME280;22846;42.654;23.314;2022-10-18T10:03:56;95753.72;;;26.25;46.16
31337;BME280;22846;42.654;23.314;2022-10-18T10:06:23;95748.22;;;26.25;46.28
31337;BME280;22846;42.654;23.314;2022-10-18T10:08:53;95747.03;;;26.26;45.92
31337;BME280;22846;42.654;23.314;2022-10-18T10:14:23;95736.09;;;26.26;45.89
31337;BME280;22846;42.654;23.314;2022-10-18T10:17:00;95727.84;;;26.26;45.97
31337;BME280;22846;42.654;23.314;2022-10-18T10:19:36;95717.66;;;26.27;46.06
31337;BME280;22846;42.654;23.314;2022-10-18T10:22:04;95715.69;;;26.27;46.15
31337;BME280;22846;42.654;23.314;2022-10-18T10:24:42;95710.22;;;26.27;45.93
31337;BME280;22846;42.654;23.314;2022-10-18T10:27:20;95698.06;;;26.28;45.90
31337;BME280;22846;42.654;23.314;2022-10-18T10:29:52;95698.06;;;26.28;45.93
31337;BME280;22846;42.654;23.314;2022-10-18T10:32:21;95695.31;;;26.28;45.85
31337;BME280;22846;42.654;23.314;2022-10-18T10:34:47;95688.66;;;26.29;46.06
31337;BME280;22846;42.654;23.314;2022-10-18T10:40:02;95683.94;;;26.30;45.83
31337;BME280;22846;42.654;23.314;2022-10-18T10:42:35;95678.44;;;26.30;45.82
31337;BME280;22846;42.654;23.314;2022-10-18T10:45:02;95665.53;;;26.30;45.77
31337;BME280;22846;42.654;23.314;2022-10-18T10:47:27;95666.28;;;26.31;45.64
31337;BME280;22846;42.654;23.314;2022-10-18T10:49:55;95654.91;;;26.32;45.78
31337;BME280;22846;42.654;23.314;2022-10-18T10:52:22;95654.91;;;26.32;45.75
31337;BME280;22846;42.654;23.314;2022-10-18T10:54:48;95646.69;;;26.32;45.73
31337;BME280;22846;42.654;23.314;2022-10-18T10:59:44;95640.78;;;26.34;45.59
31337;BME280;22846;42.654;23.314;2022-10-18T11:04:35;95635.63;;;26.36;45.86
31337;BME280;22846;42.654;23.314;2022-10-18T11:09:32;95630.94;;;26.36;45.49
31337;BME280;22846;42.654;23.314;2022-10-18T11:12:05;95628.56;;;26.38;45.68
31337;BME280;22846;42.654;23.314;2022-10-18T11:14:36;95623.06;;;26.38;45.78
31337;BME280;22846;42.654;23.314;2022-10-18T11:17:10;95619.16;;;26.39;45.72
31337;BME280;22846;42.654;23.314;2022-10-18T11:22:17;95601.09;;;26.42;45.78
31337;BME280;22846;42.654;23.314;2022-10-18T11:24:44;95592.88;;;26.42;45.73
31337;BME280;22846;42.654;23.314;2022-10-18T11:27:16;95595.16;;;26.43;45.60
31337;BME280;22846;42.654;23.314;2022-10-18T11:29:53;95586.94;;;26.43;45.80
31337;BME280;22846;42.654;23.314;2022-10-18T11:32:30;95581.81;;;26.45;45.67
31337;BME280;22846;42.654;23.314;2022-10-18T12:03:19;95535.19;;;26.61;44.98
31337;BME280;22846;42.654;23.314;2022-10-18T12:05:46;95532.47;;;26.61;45.17
31337;BME280;22846;42.654;23.314;2022-10-18T12:08:17;95527.31;;;26.63;45.16
31337;BME280;22846;42.654;23.314;2022-10-18T12:10:46;95513.16;;;26.64;45.13
31337;BME280;22846;42.654;23.314;2022-10-18T12:13:22;95509.97;;;26.66;45.14
31337;BME280;22846;42.654;23.314;2022-10-18T12:15:51;95503.66;;;26.69;45.07
31337;BME280;22846;42.654;23.314;2022-10-18T12:18:19;95505.94;;;26.70;45.11
31337;BME280;22846;42.654;23.314;2022-10-18T12:20:50;95504.00;;;26.71;44.92
31337;BME280;22846;42.654;23.314;2022-10-18T12:23:41;95496.13;;;26.73;44.97
31337;BME280;22846;42.654;23.314;2022-10-18T12:26:04;95487.44;;;26.74;44.75
31337;BME280;22846;42.654;23.314;2022-10-18T12:28:50;95482.31;;;26.76;44.98
31337;BME280;22846;42.654;23.314;2022-10-18T12:33:44;95479.47;;;26.80;44.89
31337;BME280;22846;42.654;23.314;2022-10-18T12:38:40;95473.09;;;26.83;44.92
31337;BME280;22846;42.654;23.314;2022-10-18T12:41:06;95472.69;;;26.84;44.82
31337;BME280;22846;42.654;23.314;2022-10-18T12:43:32;95470.28;;;26.86;44.61
31337;BME280;22846;42.654;23.314;2022-10-18T12:46:02;95459.63;;;26.88;44.76
31337;BME280;22846;42.654;23.314;2022-10-18T12:51:02;95461.50;;;26.91;44.77
31337;BME280;22846;42.654;23.314;2022-10-18T12:53:28;95456.38;;;26.93;44.64
31337;BME280;22846;42.654;23.314;2022-10-18T12:55:55;95451.22;;;26.95;44.49
31337;BME280;22846;42.654;23.314;2022-10-18T12:58:40;95460.56;;;26.98;44.34
31337;BME280;22846;42.654;23.314;2022-10-18T13:01:06;95451.88;;;26.99;44.51
31337;BME280;22846;42.654;23.314;2022-10-18T13:03:49;95453.00;;;27.02;44.45
31337;BME280;22846;42.654;23.314;2022-10-18T13:06:15;95450.63;;;27.04;44.29
31337;BME280;22846;42.654;23.314;2022-10-18T13:08:40;95448.97;;;27.06;44.24
31337;BME280;22846;42.654;23.314;2022-10-18T13:16:00;95438.22;;;27.12;44.24
31337;BME280;22846;42.654;23.314;2022-10-18T13:18:35;95437.38;;;27.15;44.36
31337;BME280;22846;42.654;23.314;2022-10-18T13:33:44;95418.53;;;27.29;43.96
31337;BME280;22846;42.654;23.314;2022-10-18T13:41:10;95410.81;;;27.36;43.82
31337;BME280;22846;42.654;23.314;2022-10-18T13:59:50;95391.72;;;27.58;43.74
31337;BME280;22846;42.654;23.314;2022-10-18T14:07:22;95390.22;;;27.82;43.25
31337;BME280;22846;42.654;23.314;2022-10-18T14:09:51;95383.59;;;27.92;42.99
31337;BME280;22846;42.654;23.314;2022-10-18T14:14:47;95378.72;;;28.20;42.27
31337;BME280;22846;42.654;23.314;2022-10-18T14:17:22;95394.75;;;28.34;42.11
31337;BME280;22846;42.654;23.314;2022-10-18T14:19:51;95390.00;;;28.47;41.58
31337;BME280;22846;42.654;23.314;2022-10-18T14:22:22;95395.13;;;28.58;41.49
31337;BME280;22846;42.654;23.314;2022-10-18T14:24:53;95381.44;;;28.67;41.19
31337;BME280;22846;42.654;23.314;2022-10-18T14:27:19;95383.94;;;28.74;41.03
31337;BME280;22846;42.654;23.314;2022-10-18T14:29:45;95380.63;;;28.79;40.89
31337;BME280;22846;42.654;23.314;2022-10-18T14:32:27;95384.03;;;28.83;40.70
31337;BME280;22846;42.654;23.314;2022-10-18T14:34:53;95375.69;;;28.74;40.78
31337;BME280;22846;42.654;23.314;2022-10-18T14:37:26;95372.22;;;28.61;41.34
31337;BME280;22846;42.654;23.314;2022-10-18T14:39:51;95371.97;;;28.46;41.17
31337;BME280;22846;42.654;23.314;2022-10-18T14:42:21;95373.53;;;28.35;41.57
31337;BME280;22846;42.654;23.314;2022-10-18T14:44:47;95375.97;;;28.20;41.82
31337;BME280;22846;42.654;23.314;2022-10-18T14:47:15;95372.50;;;28.08;42.24
31337;BME280;22846;42.654;23.314;2022-10-18T14:49:45;95372.06;;;27.97;42.26
31337;BME280;22846;42.654;23.314;2022-10-18T14:52:17;95364.59;;;27.85;42.43
31337;BME280;22846;42.654;23.314;2022-10-18T14:54:43;95363.41;;;27.73;42.79
31337;BME280;22846;42.654;23.314;2022-10-18T14:57:16;95367.28;;;27.63;43.04
31337;BME280;22846;42.654;23.314;2022-10-18T14:59:48;95364.84;;;27.53;43.15
31337;BME280;22846;42.654;23.314;2022-10-18T15:02:29;95362.44;;;27.42;43.21
31337;BME280;22846;42.654;23.314;2022-10-18T15:07:23;95355.50;;;27.26;43.55
31337;BME280;22846;42.654;23.314;2022-10-18T15:09:49;95355.28;;;27.20;43.85
31337;BME280;22846;42.654;23.314;2022-10-18T15:12:15;95351.50;;;27.14;43.94
31337;BME280;22846;42.654;23.314;2022-10-18T15:14:41;95354.03;;;27.09;43.78
31337;BME280;22846;42.654;23.314;2022-10-18T15:17:11;95347.56;;;27.03;44.19
31337;BME280;22846;42.654;23.314;2022-10-18T15:19:38;95350.81;;;26.98;44.22